Time;durP1;ratioP1;P1;durP2;ratioP2;P2;SDS_P1;SDS_P2;PMS_P1;PMS_P2;Temp;Humidity;BMP_temperature;BMP_pressure;BME280_temperature;BME280_humidity;BME280_pressure;Samples;Min_cycle;Max_cycle;Signal;HPM_P1;HPM_P2
2024/01/03 00:00:34;;;;;;;1999.90;999.90;;;8.50;99.90;;;;;;5004625;28;20034;-77
2024/01/03 00:03:00;;;;;;;1999.90;999.90;;;8.50;99.90;;;;;;4997826;28;20605;-77
2024/01/03 00:05:36;;;;;;;1999.90;999.90;;;8.50;99.90;;;;;;4998600;28;20125;-78
2024/01/03 00:08:04;;;;;;;1999.90;999.90;;;8.40;99.90;;;;;;4983800;28;20092;-77
2024/01/03 00:11:02;;;;;;;1999.90;999.90;;;8.40;99.90;;;;;;4984341;28;20042;-77
2024/01/03 00:13:31;;;;;;;1999.90;999.90;;;8.40;99.90;;;;;;4955681;28;20477;-77
2024/01/03 00:15:59;;;;;;;1999.90;999.90;;;8.40;99.90;;;;;;4982437;28;20441;-77
2024/01/03 00:18:34;;;;;;;1999.90;999.90;;;8.40;99.90;;;;;;4983911;28;20510;-77
2024/01/03 00:20:59;;;;;;;1999.90;999.90;;;8.40;99.90;;;;;;4979273;28;20041;-78
2024/01/03 00:23:37;;;;;;;1999.90;999.90;;;8.40;99.90;;;;;;5001074;28;20038;-77
2024/01/03 00:26:04;;;;;;;1999.90;999.90;;;8.40;99.90;;;;;;5003188;28;20053;-77
2024/01/03 00:28:30;;;;;;;1999.90;999.90;;;8.40;99.90;;;;;;4986191;28;20120;-77
2024/01/03 00:30:56;;;;;;;1999.90;999.90;;;8.40;99.90;;;;;;5000137;28;20447;-77
2024/01/03 00:33:21;;;;;;;1999.90;999.90;;;8.40;99.90;;;;;;5008514;28;20104;-77
2024/01/03 00:35:47;;;;;;;1999.90;999.90;;;8.50;99.90;;;;;;4987610;28;20050;-77
2024/01/03 00:38:13;;;;;;;1999.90;999.90;;;8.30;99.90;;;;;;5002098;28;20050;-77
2024/01/03 00:40:55;;;;;;;1999.90;999.90;;;8.30;99.90;;;;;;4988512;28;20050;-78
2024/01/03 00:43:21;;;;;;;1999.90;999.90;;;8.30;99.90;;;;;;5005170;28;20121;-77
2024/01/03 00:45:48;;;;;;;1999.90;999.90;;;8.30;99.90;;;;;;4986720;28;20038;-77
2024/01/03 00:48:18;;;;;;;1999.90;999.90;;;8.30;99.90;;;;;;4989033;28;20033;-77
2024/01/03 00:50:43;;;;;;;1999.90;999.90;;;8.30;99.90;;;;;;4988723;28;20034;-78
2024/01/03 00:53:10;;;;;;;1999.90;999.90;;;8.20;99.90;;;;;;4989187;28;20518;-77
2024/01/03 00:55:36;;;;;;;1999.90;999.90;;;8.20;99.90;;;;;;4988548;28;20411;-77
2024/01/03 00:58:02;;;;;;;1999.90;999.90;;;8.20;99.90;;;;;;5003152;28;20038;-77
2024/01/03 01:00:28;;;;;;;1999.90;999.90;;;8.20;99.90;;;;;;4988219;28;20030;-77
2024/01/03 01:02:54;;;;;;;1999.90;999.90;;;8.20;99.90;;;;;;5004529;28;20079;-77
2024/01/03 01:05:20;;;;;;;1999.90;999.90;;;8.20;99.90;;;;;;4982843;28;20125;-77
2024/01/03 01:07:45;;;;;;;1999.90;999.90;;;8.20;99.90;;;;;;5002539;28;20042;-77
2024/01/03 01:10:11;;;;;;;1999.90;999.90;;;8.10;99.90;;;;;;4985290;28;20034;-76
2024/01/03 01:12:36;;;;;;;1999.90;999.90;;;8.10;99.90;;;;;;5006004;28;20053;-77
2024/01/03 01:15:02;;;;;;;1999.90;999.90;;;8.20;99.90;;;;;;5003314;28;20034;-77
2024/01/03 01:17:28;;;;;;;1999.90;999.90;;;8.10;99.90;;;;;;4989345;28;20121;-78
2024/01/03 01:19:53;;;;;;;1999.90;999.90;;;8.10;99.90;;;;;;4982444;28;20043;-78
2024/01/03 01:22:19;;;;;;;1999.90;999.90;;;8.10;99.90;;;;;;5005848;28;20057;-77
2024/01/03 01:24:45;;;;;;;1999.90;999.90;;;8.10;99.90;;;;;;5003416;28;20530;-77
2024/01/03 01:27:10;;;;;;;1999.90;999.90;;;8.10;99.90;;;;;;5001796;28;20038;-77
2024/01/03 01:29:36;;;;;;;1999.90;999.90;;;8.10;99.90;;;;;;5000711;28;20129;-77
2024/01/03 01:32:02;;;;;;;1999.90;999.90;;;8.10;99.90;;;;;;5009768;28;20073;-77
2024/01/03 01:34:28;;;;;;;1999.90;999.90;;;8.10;99.90;;;;;;5002945;28;20414;-78
2024/01/03 01:36:53;;;;;;;1999.90;999.90;;;8.10;99.90;;;;;;4981923;28;20046;-78
2024/01/03 01:39:19;;;;;;;1999.90;999.90;;;8.10;99.90;;;;;;4985705;28;20108;-77
2024/01/03 01:41:44;;;;;;;1999.90;999.90;;;8.10;99.90;;;;;;4990190;28;20034;-77
2024/01/03 01:44:10;;;;;;;1999.90;999.90;;;8.10;99.90;;;;;;5002876;28;20026;-77
2024/01/03 01:46:37;;;;;;;1999.90;999.90;;;8.10;99.90;;;;;;5005516;28;20079;-77
2024/01/03 01:49:07;;;;;;;1999.90;999.90;;;8.70;99.90;;;;;;5002950;28;20041;-77
2024/01/03 01:51:35;;;;;;;1999.90;999.90;;;8.10;99.90;;;;;;5005047;28;20046;-77
2024/01/03 01:54:02;;;;;;;1999.90;999.90;;;8.70;99.90;;;;;;4983358;28;20121;-77
2024/01/03 01:56:29;;;;;;;1999.90;999.90;;;8.10;99.90;;;;;;4985857;28;20034;-77
2024/01/03 01:58:55;;;;;;;1999.90;999.90;;;8.20;99.90;;;;;;4971095;28;20080;-77
2024/01/03 02:01:22;;;;;;;1999.90;999.90;;;8.10;99.90;;;;;;4979700;28;20031;-77
2024/01/03 02:03:50;;;;;;;1999.90;999.90;;;8.10;99.90;;;;;;5003280;28;20033;-77
2024/01/03 02:06:16;;;;;;;1999.90;999.90;;;8.40;99.90;;;;;;4980946;28;20121;-77
2024/01/03 02:08:42;;;;;;;1999.90;999.90;;;8.20;99.90;;;;;;4982010;28;20072;-76
2024/01/03 02:11:07;;;;;;;1999.90;999.90;;;8.20;99.90;;;;;;4984189;28;20038;-77
2024/01/03 02:13:33;;;;;;;1999.90;999.90;;;8.60;99.90;;;;;;4981426;28;20554;-77
2024/01/03 02:15:59;;;;;;;1999.90;999.90;;;8.20;99.90;;;;;;5002454;28;20053;-76
2024/01/03 02:18:26;;;;;;;1999.90;999.90;;;8.20;99.90;;;;;;4984484;28;20053;-77
2024/01/03 02:20:54;;;;;;;1999.90;999.90;;;8.20;99.90;;;;;;4987084;28;20037;-77
2024/01/03 02:23:20;;;;;;;1999.90;999.90;;;8.30;99.90;;;;;;5005832;28;20042;-77
2024/01/03 02:25:45;;;;;;;1999.90;999.90;;;8.20;99.90;;;;;;5002888;28;20041;-77
2024/01/03 02:28:11;;;;;;;1999.90;999.90;;;8.30;99.90;;;;;;4982697;28;20039;-77
2024/01/03 02:30:37;;;;;;;1999.90;999.90;;;8.30;99.90;;;;;;4981538;28;20053;-77
2024/01/03 02:33:04;;;;;;;1999.90;999.90;;;8.30;99.90;;;;;;4986242;28;20034;-76
2024/01/03 02:35:29;;;;;;;1999.90;999.90;;;8.30;99.90;;;;;;5001244;28;20049;-77
2024/01/03 02:37:55;;;;;;;1999.90;999.90;;;8.30;99.90;;;;;;5002102;28;20046;-77
2024/01/03 02:40:20;;;;;;;1999.90;999.90;;;8.30;99.90;;;;;;4999958;28;20065;-78
2024/01/03 02:42:46;;;;;;;1999.90;999.90;;;8.40;99.90;;;;;;4982238;28;20069;-77
2024/01/03 02:45:12;;;;;;;1999.90;999.90;;;8.30;99.90;;;;;;5001538;28;20049;-76
2024/01/03 02:47:37;;;;;;;1999.90;999.90;;;8.80;99.90;;;;;;4983602;28;20053;-77
2024/01/03 02:50:03;;;;;;;1999.90;999.90;;;8.40;99.90;;;;;;5001704;28;20030;-77
2024/01/03 02:52:29;;;;;;;1999.90;999.90;;;8.40;99.90;;;;;;5002625;28;20546;-77
2024/01/03 02:54:54;;;;;;;1999.90;999.90;;;8.50;99.90;;;;;;5003434;28;20033;-77
2024/01/03 02:57:20;;;;;;;1999.90;999.90;;;8.40;99.90;;;;;;4985272;28;20042;-77
2024/01/03 02:59:45;;;;;;;1999.90;999.90;;;8.40;99.90;;;;;;5001421;28;20038;-77
2024/01/03 03:02:11;;;;;;;1999.90;999.90;;;8.90;99.90;;;;;;4985060;28;20108;-78
2024/01/03 03:04:37;;;;;;;1999.90;999.90;;;8.50;99.90;;;;;;4987721;28;20045;-78
2024/01/03 03:07:02;;;;;;;1999.90;999.90;;;8.60;99.90;;;;;;4983925;28;20061;-77
2024/01/03 03:09:28;;;;;;;1999.90;999.90;;;8.60;99.90;;;;;;4985974;28;20101;-77
2024/01/03 03:11:53;;;;;;;1999.90;999.90;;;8.50;99.90;;;;;;4985448;28;20038;-77
2024/01/03 03:14:20;;;;;;;1999.90;999.90;;;8.60;99.90;;;;;;4999529;28;20117;-77
2024/01/03 03:16:46;;;;;;;1999.90;999.90;;;8.60;99.90;;;;;;5007244;28;20507;-77
2024/01/03 03:19:12;;;;;;;1999.90;999.90;;;8.60;99.90;;;;;;5000606;28;20057;-77
2024/01/03 03:21:38;;;;;;;1999.90;999.90;;;8.60;99.90;;;;;;5001890;28;20042;-77
2024/01/03 03:24:03;;;;;;;1999.90;999.90;;;8.60;99.90;;;;;;5002030;28;20045;-77
2024/01/03 03:26:29;;;;;;;1999.90;999.90;;;8.70;99.90;;;;;;5001145;28;20494;-77
2024/01/03 03:28:54;;;;;;;1999.90;999.90;;;8.70;99.90;;;;;;4986107;28;20092;-77
2024/01/03 03:31:20;;;;;;;1999.90;999.90;;;8.70;99.90;;;;;;4996927;28;20557;-76
2024/01/03 03:33:46;;;;;;;1999.90;999.90;;;8.70;99.90;;;;;;4998532;28;20046;-77
2024/01/03 03:36:13;;;;;;;1999.90;999.90;;;8.60;99.90;;;;;;4984726;28;20069;-77
2024/01/03 03:38:39;;;;;;;1999.90;999.90;;;8.60;99.90;;;;;;4985989;28;20046;-77
2024/01/03 03:41:12;;;;;;;1999.90;999.90;;;8.70;99.90;;;;;;4981831;28;20062;-77
2024/01/03 03:43:39;;;;;;;1999.90;999.90;;;8.80;99.90;;;;;;4982554;28;20060;-77
2024/01/03 03:46:05;;;;;;;1999.90;999.90;;;8.70;99.90;;;;;;4999237;28;20030;-77
2024/01/03 03:48:32;;;;;;;1999.90;999.90;;;8.70;99.90;;;;;;5000893;28;20037;-78
2024/01/03 03:50:58;;;;;;;1999.90;999.90;;;8.70;99.90;;;;;;4996524;28;20049;-78
2024/01/03 03:53:23;;;;;;;1999.90;999.90;;;8.70;99.90;;;;;;4982862;28;20038;-77
2024/01/03 03:55:49;;;;;;;1999.90;999.90;;;8.70;99.90;;;;;;4988116;28;20414;-78
2024/01/03 03:58:14;;;;;;;1999.90;999.90;;;8.90;99.90;;;;;;5001684;28;20038;-77
2024/01/03 04:00:40;;;;;;;1999.90;999.90;;;8.60;99.90;;;;;;5005651;28;20034;-77
2024/01/03 04:03:07;;;;;;;1999.90;999.90;;;8.60;99.90;;;;;;5004759;28;20128;-77
2024/01/03 04:05:35;;;;;;;1999.90;999.90;;;8.50;99.90;;;;;;5005902;28;20506;-77
2024/01/03 04:08:01;;;;;;;1999.90;999.90;;;8.50;99.90;;;;;;5009012;28;20045;-77
2024/01/03 04:10:26;;;;;;;1999.90;999.90;;;8.50;99.90;;;;;;4987243;28;20038;-79
2024/01/03 04:12:52;;;;;;;1999.90;999.90;;;8.40;99.90;;;;;;4991470;28;20065;-77
2024/01/03 04:15:19;;;;;;;1999.90;999.90;;;8.40;99.90;;;;;;5006810;28;20049;-77
2024/01/03 04:17:45;;;;;;;1999.90;999.90;;;8.40;99.90;;;;;;5008005;28;20042;-77
2024/01/03 04:20:10;;;;;;;1999.90;999.90;;;8.40;99.90;;;;;;5003459;28;20038;-77
2024/01/03 04:22:38;;;;;;;1999.90;999.90;;;8.40;99.90;;;;;;5005802;28;20121;-77
2024/01/03 04:25:04;;;;;;;1999.90;999.90;;;8.30;99.90;;;;;;5002244;28;20038;-77
2024/01/03 04:27:29;;;;;;;1999.90;999.90;;;8.30;99.90;;;;;;5002732;28;20038;-76
2024/01/03 04:29:55;;;;;;;1999.90;999.90;;;8.30;99.90;;;;;;5003321;28;20069;-76
2024/01/03 04:32:20;;;;;;;1999.90;999.90;;;8.30;99.90;;;;;;5006794;28;20042;-77
2024/01/03 04:34:47;;;;;;;1999.90;999.90;;;8.30;99.90;;;;;;5008191;28;20080;-77
2024/01/03 04:37:13;;;;;;;1999.90;999.90;;;8.30;99.90;;;;;;5008210;28;20065;-77
2024/01/03 04:39:38;;;;;;;1999.90;999.90;;;8.30;99.90;;;;;;5002294;28;20058;-77
2024/01/03 04:42:04;;;;;;;1999.90;999.90;;;8.30;99.90;;;;;;5005228;28;20376;-76
2024/01/03 04:44:29;;;;;;;1999.90;999.90;;;8.30;99.90;;;;;;4988064;28;20140;-76
2024/01/03 04:46:55;;;;;;;1999.90;999.90;;;8.30;99.90;;;;;;4987832;28;20030;-77
2024/01/03 04:49:21;;;;;;;1999.90;999.90;;;8.40;99.90;;;;;;4984390;28;20483;-78
2024/01/03 04:51:46;;;;;;;1999.90;999.90;;;8.40;99.90;;;;;;4989153;28;20092;-77
2024/01/03 04:54:12;;;;;;;1999.90;999.90;;;8.40;99.90;;;;;;4988566;28;20038;-76
2024/01/03 04:56:37;;;;;;;1999.90;999.90;;;8.30;99.90;;;;;;5001545;28;20116;-76
2024/01/03 04:59:03;;;;;;;1999.90;999.90;;;8.60;99.90;;;;;;4982879;28;20125;-77
2024/01/03 05:01:29;;;;;;;1999.90;999.90;;;8.30;99.90;;;;;;4990763;28;20125;-77
2024/01/03 05:04:02;;;;;;;1999.90;999.90;;;8.30;99.90;;;;;;5001365;28;20492;-76
2024/01/03 05:06:27;;;;;;;1999.90;999.90;;;8.30;99.90;;;;;;4983074;28;20060;-76
2024/01/03 05:08:53;;;;;;;1999.90;999.90;;;8.50;99.90;;;;;;5004853;28;20562;-76
2024/01/03 05:11:19;;;;;;;1999.90;999.90;;;8.30;99.90;;;;;;4986031;28;20048;-77
2024/01/03 05:13:44;;;;;;;1999.90;999.90;;;8.30;99.90;;;;;;4985628;28;20068;-77
2024/01/03 05:16:10;;;;;;;1999.90;999.90;;;8.30;99.90;;;;;;4987806;28;20387;-77
2024/01/03 05:18:36;;;;;;;1999.90;999.90;;;8.20;99.90;;;;;;5004787;28;20078;-77
2024/01/03 05:21:02;;;;;;;1999.90;999.90;;;8.20;99.90;;;;;;5000273;28;20047;-76
2024/01/03 05:23:28;;;;;;;1999.90;999.90;;;8.20;99.90;;;;;;5005093;28;20177;-76
2024/01/03 05:25:53;;;;;;;1999.90;999.90;;;8.20;99.90;;;;;;5004015;28;20042;-77
2024/01/03 05:28:19;;;;;;;1999.90;999.90;;;8.20;99.90;;;;;;5001047;28;20049;-75
2024/01/03 05:30:44;;;;;;;1999.90;999.90;;;8.20;99.90;;;;;;5002158;28;20122;-77
2024/01/03 05:33:10;;;;;;;1999.90;999.90;;;8.20;99.90;;;;;;4985135;28;20048;-77
2024/01/03 05:35:36;;;;;;;1999.90;999.90;;;8.20;99.90;;;;;;5002359;28;20507;-77
2024/01/03 05:38:01;;;;;;;1999.90;999.90;;;8.30;99.90;;;;;;5010088;28;20045;-76
2024/01/03 05:40:27;;;;;;;1999.90;999.90;;;8.30;99.90;;;;;;5000031;28;20404;-77
2024/01/03 05:42:52;;;;;;;1999.90;999.90;;;8.40;99.90;;;;;;5001622;28;20573;-77
2024/01/03 05:45:18;;;;;;;1999.90;999.90;;;8.40;99.90;;;;;;4985795;28;20034;-76
2024/01/03 05:47:44;;;;;;;1999.90;999.90;;;8.40;99.90;;;;;;5003250;28;20038;-77
2024/01/03 05:50:09;;;;;;;1999.90;999.90;;;8.50;99.90;;;;;;4999148;28;20033;-77
2024/01/03 05:52:38;;;;;;;1999.90;999.90;;;8.50;99.90;;;;;;4995660;28;20470;-76
2024/01/03 05:55:06;;;;;;;1999.90;999.90;;;8.50;99.90;;;;;;4984221;28;20034;-77
2024/01/03 05:57:32;;;;;;;1999.90;999.90;;;8.50;99.90;;;;;;4992039;28;20100;-77
2024/01/03 05:59:58;;;;;;;1999.90;999.90;;;8.50;99.90;;;;;;4986235;28;20043;-76
2024/01/03 06:02:24;;;;;;;1999.90;999.90;;;8.50;99.90;;;;;;5001749;28;20045;-76
2024/01/03 06:04:49;;;;;;;1999.90;999.90;;;8.60;99.90;;;;;;4986927;28;20069;-76
2024/01/03 06:07:15;;;;;;;1999.90;999.90;;;8.50;99.90;;;;;;5004142;28;20096;-76
2024/01/03 06:09:41;;;;;;;1999.90;999.90;;;8.50;99.90;;;;;;5005537;28;20073;-77
2024/01/03 06:12:07;;;;;;;1999.90;999.90;;;8.50;99.90;;;;;;5001973;28;20068;-77
2024/01/03 06:14:32;;;;;;;1999.90;999.90;;;8.50;99.90;;;;;;5010071;28;20490;-76
2024/01/03 06:16:58;;;;;;;1999.90;999.90;;;8.50;99.90;;;;;;4986925;28;20042;-76
2024/01/03 06:19:23;;;;;;;1999.90;999.90;;;8.80;99.90;;;;;;5001135;28;20069;-77
2024/01/03 06:21:49;;;;;;;1999.90;999.90;;;8.70;99.90;;;;;;4981792;28;20050;-76
2024/01/03 06:24:15;;;;;;;1999.90;999.90;;;8.80;99.90;;;;;;4984554;28;20038;-77
2024/01/03 06:26:40;;;;;;;1999.90;999.90;;;8.50;99.90;;;;;;5002043;28;20495;-76
2024/01/03 06:29:06;;;;;;;1999.90;999.90;;;8.50;99.90;;;;;;5004470;28;20041;-76
2024/01/03 06:31:31;;;;;;;1999.90;999.90;;;8.50;99.90;;;;;;4987059;28;20042;-77
2024/01/03 06:33:57;;;;;;;1999.90;999.90;;;8.50;99.90;;;;;;4986640;28;20117;-77
2024/01/03 06:36:22;;;;;;;1999.90;999.90;;;8.50;99.90;;;;;;4987841;28;20096;-76
2024/01/03 06:38:51;;;;;;;1999.90;999.90;;;8.60;99.90;;;;;;5005444;28;20056;-77
2024/01/03 06:41:17;;;;;;;1999.90;999.90;;;8.40;99.90;;;;;;5001984;28;20033;-77
2024/01/03 06:43:44;;;;;;;1999.90;999.90;;;8.40;99.90;;;;;;5005451;28;20045;-76
2024/01/03 06:46:09;;;;;;;1999.90;999.90;;;8.40;99.90;;;;;;5001867;28;20038;-76
2024/01/03 06:48:35;;;;;;;1999.90;999.90;;;8.40;99.90;;;;;;4986400;28;20048;-77
2024/01/03 06:51:02;;;;;;;1999.90;999.90;;;8.40;99.90;;;;;;5001840;28;20434;-76
2024/01/03 06:53:29;;;;;;;1999.90;999.90;;;8.40;99.90;;;;;;4983241;28;20041;-77
2024/01/03 06:55:55;;;;;;;1999.90;999.90;;;8.40;99.90;;;;;;4986403;28;20396;-77
2024/01/03 06:58:23;;;;;;;1999.90;999.90;;;8.40;99.90;;;;;;5001151;28;20099;-76
2024/01/03 07:00:49;;;;;;;1999.90;999.90;;;8.70;99.90;;;;;;4988365;28;20122;-76
2024/01/03 07:03:15;;;;;;;1999.90;999.90;;;8.40;99.90;;;;;;5006060;28;20073;-76
2024/01/03 07:05:41;;;;;;;1999.90;999.90;;;8.30;99.90;;;;;;4982738;28;20080;-77
2024/01/03 07:08:08;;;;;;;1999.90;999.90;;;8.30;99.90;;;;;;4986585;28;20045;-77
2024/01/03 07:10:34;;;;;;;1999.90;999.90;;;8.20;99.90;;;;;;4999851;28;20037;-76
2024/01/03 07:13:00;;;;;;;1999.90;999.90;;;8.20;99.90;;;;;;4982658;28;20116;-77
2024/01/03 07:15:26;;;;;;;1999.90;999.90;;;8.20;99.90;;;;;;5000669;28;20092;-76
2024/01/03 07:17:55;;;;;;;1999.90;999.90;;;8.40;99.90;;;;;;4998342;28;20057;-76
2024/01/03 07:20:21;;;;;;;1999.90;999.90;;;8.10;99.90;;;;;;5001828;28;20034;-77
2024/01/03 07:22:47;;;;;;;1999.90;999.90;;;8.10;99.90;;;;;;5003321;28;20048;-77
2024/01/03 07:25:12;;;;;;;1999.90;999.90;;;8.10;99.90;;;;;;5000466;28;20034;-77
2024/01/03 07:27:38;;;;;;;1999.90;999.90;;;8.10;99.90;;;;;;4982279;28;20056;-77
2024/01/03 07:30:04;;;;;;;1999.90;999.90;;;8.10;99.90;;;;;;4987285;28;20160;-77
2024/01/03 07:32:30;;;;;;;1999.90;999.90;;;8.10;99.90;;;;;;5003330;28;20081;-77
2024/01/03 07:34:55;;;;;;;1999.90;999.90;;;8.10;99.90;;;;;;4980870;28;20073;-78
2024/01/03 07:37:21;;;;;;;1999.90;999.90;;;8.30;99.90;;;;;;5000860;28;20038;-77
2024/01/03 07:39:46;;;;;;;1999.90;999.90;;;8.10;99.90;;;;;;5002036;28;20519;-77
2024/01/03 07:42:12;;;;;;;1999.90;999.90;;;8.10;99.90;;;;;;4999805;28;20064;-76
2024/01/03 07:44:41;;;;;;;1999.90;999.90;;;8.20;99.90;;;;;;4982809;28;20072;-77
2024/01/03 07:47:10;;;;;;;1999.90;999.90;;;8.20;99.90;;;;;;5003376;28;20042;-77
2024/01/03 07:49:37;;;;;;;1999.90;999.90;;;8.50;99.90;;;;;;4999835;28;20050;-76
2024/01/03 07:52:04;;;;;;;1999.90;999.90;;;8.20;99.90;;;;;;5003476;28;20042;-77
2024/01/03 07:54:30;;;;;;;1999.90;999.90;;;8.30;99.90;;;;;;4998993;28;20046;-76
2024/01/03 07:56:57;;;;;;;1999.90;999.90;;;8.30;99.90;;;;;;4986168;28;20384;-77
2024/01/03 07:59:26;;;;;;;1999.90;999.90;;;8.50;99.90;;;;;;5005898;28;20089;-77
2024/01/03 08:01:51;;;;;;;1999.90;999.90;;;8.40;99.90;;;;;;4997797;28;20046;-77
2024/01/03 08:04:17;;;;;;;1999.90;999.90;;;8.40;99.90;;;;;;4981932;28;20042;-76
2024/01/03 08:06:43;;;;;;;1999.90;999.90;;;8.40;99.90;;;;;;4981857;28;20039;-77
2024/01/03 08:09:08;;;;;;;1999.90;999.90;;;8.40;99.90;;;;;;5001179;28;20042;-77
2024/01/03 08:11:34;;;;;;;1999.90;999.90;;;8.40;99.90;;;;;;5003639;28;20069;-77
2024/01/03 08:14:00;;;;;;;1999.90;999.90;;;8.40;99.90;;;;;;5002846;28;20547;-78
2024/01/03 08:16:25;;;;;;;1999.90;999.90;;;8.40;99.90;;;;;;4984590;28;20041;-77
2024/01/03 08:18:51;;;;;;;1999.90;999.90;;;8.40;99.90;;;;;;5000346;28;20073;-78
2024/01/03 08:21:16;;;;;;;1999.90;999.90;;;8.40;99.90;;;;;;5000024;28;20442;-77
2024/01/03 08:23:42;;;;;;;1999.90;999.90;;;8.40;99.90;;;;;;4985604;28;20038;-78
2024/01/03 08:26:12;;;;;;;1999.90;999.90;;;8.70;99.90;;;;;;5002172;28;20030;-78
2024/01/03 08:28:40;;;;;;;1999.90;999.90;;;8.40;99.90;;;;;;5002398;28;20050;-77
2024/01/03 08:31:07;;;;;;;1999.90;999.90;;;8.50;99.90;;;;;;5002493;28;20034;-76
2024/01/03 08:33:36;;;;;;;1999.90;999.90;;;8.50;99.90;;;;;;4982186;28;20084;-77
2024/01/03 08:36:02;;;;;;;1999.90;999.90;;;8.50;99.90;;;;;;4984509;28;20066;-77
2024/01/03 08:38:28;;;;;;;1999.90;999.90;;;8.50;99.90;;;;;;4998460;28;20340;-76
2024/01/03 08:40:53;;;;;;;1999.90;999.90;;;8.70;99.90;;;;;;4996853;28;20487;-77
2024/01/03 08:43:19;;;;;;;1999.90;999.90;;;8.50;99.90;;;;;;4989453;28;20038;-79
2024/01/03 08:45:45;;;;;;;1999.90;999.90;;;8.40;99.90;;;;;;4997729;28;20033;-79
2024/01/03 08:48:10;;;;;;;1999.90;999.90;;;8.80;99.90;;;;;;4974226;28;20100;-77
2024/01/03 08:50:36;;;;;;;1999.90;999.90;;;8.40;99.90;;;;;;5001692;28;20035;-78
2024/01/03 08:53:02;;;;;;;1999.90;999.90;;;8.40;99.90;;;;;;4988193;28;20438;-78
2024/01/03 08:55:27;;;;;;;1999.90;999.90;;;8.90;99.90;;;;;;4989984;28;20046;-78
2024/01/03 08:57:56;;;;;;;1999.90;999.90;;;8.40;99.90;;;;;;4989532;28;20061;-79
2024/01/03 09:00:24;;;;;;;1999.90;999.90;;;8.50;99.90;;;;;;4983674;28;20061;-78
2024/01/03 09:02:50;;;;;;;1999.90;999.90;;;8.60;99.90;;;;;;4985760;28;20053;-79
2024/01/03 09:05:16;;;;;;;1999.90;999.90;;;8.90;99.90;;;;;;4989123;28;20069;-78
2024/01/03 09:07:45;;;;;;;1999.90;999.90;;;8.40;99.90;;;;;;4989677;28;20456;-78
2024/01/03 09:10:11;;;;;;;1999.90;999.90;;;8.40;99.90;;;;;;4989418;28;20486;-79
2024/01/03 09:12:37;;;;;;;1999.90;999.90;;;8.50;99.90;;;;;;4992970;28;20034;-80
2024/01/03 09:15:03;;;;;;;1999.90;999.90;;;8.80;99.90;;;;;;4991295;28;20069;-78
2024/01/03 09:17:29;;;;;;;1999.90;999.90;;;8.50;99.90;;;;;;4987856;28;20054;-79
2024/01/03 09:19:54;;;;;;;1999.90;999.90;;;8.50;99.90;;;;;;4988310;28;20046;-79
2024/01/03 09:22:20;;;;;;;1999.90;999.90;;;8.50;99.90;;;;;;5008224;28;20109;-79
2024/01/03 09:24:45;;;;;;;1999.90;999.90;;;8.70;99.90;;;;;;5003202;28;20038;-79
2024/01/03 09:27:11;;;;;;;1999.90;999.90;;;9.30;99.90;;;;;;5010833;28;20543;-79
2024/01/03 09:29:37;;;;;;;1999.90;999.90;;;8.90;99.90;;;;;;5011583;28;20294;-79
2024/01/03 09:32:03;;;;;;;1999.90;999.90;;;8.60;99.90;;;;;;5009131;28;20042;-79
2024/01/03 09:34:28;;;;;;;1999.90;999.90;;;8.60;99.90;;;;;;5009060;28;20058;-79
2024/01/03 09:36:54;;;;;;;1999.90;999.90;;;9.30;99.90;;;;;;5003520;28;20046;-80
2024/01/03 09:39:20;;;;;;;1999.90;999.90;;;8.60;99.90;;;;;;4999283;28;20503;-79
2024/01/03 09:41:47;;;;;;;1999.90;999.90;;;9.00;99.90;;;;;;4991630;28;20495;-79
2024/01/03 09:44:13;;;;;;;1999.90;999.90;;;8.70;99.90;;;;;;4991903;28;20070;-79
2024/01/03 09:46:40;;;;;;;1999.90;999.90;;;9.00;99.90;;;;;;4988808;28;20034;-80
2024/01/03 09:49:07;;;;;;;1999.90;999.90;;;8.70;99.90;;;;;;4992460;28;20045;-79
2024/01/03 09:51:33;;;;;;;1999.90;999.90;;;9.00;99.90;;;;;;4990551;28;20043;-79
2024/01/03 09:54:00;;;;;;;1999.90;999.90;;;8.70;99.90;;;;;;5005755;28;20050;-79
2024/01/03 09:56:26;;;;;;;1999.90;999.90;;;8.80;99.90;;;;;;4993286;28;20034;-79
2024/01/03 09:58:51;;;;;;;1999.90;999.90;;;8.80;99.90;;;;;;5009231;28;20038;-80
2024/01/03 10:01:17;;;;;;;1999.90;999.90;;;8.80;99.90;;;;;;4997266;28;20069;-79
2024/01/03 10:03:44;;;;;;;1999.90;999.90;;;9.00;99.90;;;;;;4990957;28;20034;-80
2024/01/03 10:06:13;;;;;;;1999.90;999.90;;;8.90;99.90;;;;;;4989024;28;20053;-80
2024/01/03 10:08:39;;;;;;;1999.90;999.90;;;8.90;99.90;;;;;;4990780;28;20046;-79
2024/01/03 10:11:19;;;;;;;1999.90;999.90;;;9.40;99.90;;;;;;4989674;28;20490;-79
2024/01/03 10:13:45;;;;;;;1999.90;999.90;;;8.90;99.90;;;;;;5001597;28;20038;-79
2024/01/03 10:16:11;;;;;;;1999.90;999.90;;;8.40;99.90;;;;;;5010188;28;20044;-79
2024/01/03 10:18:37;;;;;;;1999.90;999.90;;;8.90;99.90;;;;;;4987847;28;20046;-80
2024/01/03 10:21:13;;;;;;;1999.90;999.90;;;9.10;99.90;;;;;;5006507;28;20053;-79
2024/01/03 10:23:39;;;;;;;1999.90;999.90;;;8.30;99.90;;;;;;4986547;28;20053;-79
2024/01/03 10:26:05;;;;;;;1999.90;999.90;;;8.90;99.90;;;;;;5006424;28;20502;-80
2024/01/03 10:28:31;;;;;;;1999.90;999.90;;;8.80;99.90;;;;;;4988054;28;20042;-79
2024/01/03 10:30:59;;;;;;;1999.90;999.90;;;8.80;99.90;;;;;;4990494;28;20041;-79
2024/01/03 10:33:28;;;;;;;1999.90;999.90;;;8.30;99.90;;;;;;5004075;28;20050;-79
2024/01/03 10:35:54;;;;;;;1999.90;999.90;;;9.90;99.90;;;;;;4987867;28;20038;-79
2024/01/03 10:38:22;;;;;;;1999.90;999.90;;;8.40;99.90;;;;;;4990083;28;20498;-79
2024/01/03 10:40:48;;;;;;;1999.90;999.90;;;9.20;99.90;;;;;;5002073;28;20051;-79
2024/01/03 10:43:16;;;;;;;1999.90;999.90;;;9.50;99.90;;;;;;5008317;28;20053;-79
2024/01/03 10:45:41;;;;;;;1999.90;999.90;;;9.50;99.90;;;;;;5008004;28;20038;-80
2024/01/03 10:48:07;;;;;;;1999.90;999.90;;;9.20;99.90;;;;;;5005104;28;20044;-80
2024/01/03 10:50:34;;;;;;;1999.90;999.90;;;9.20;99.90;;;;;;4992929;28;20105;-78
2024/01/03 10:53:08;;;;;;;1999.90;999.90;;;8.80;99.90;;;;;;5009013;28;20040;-79
2024/01/03 10:55:36;;;;;;;;;;;8.80;99.90;;;;;;4987199;28;20077;-80
2024/01/03 10:58:18;;;;;;;1999.90;999.90;;;8.80;99.90;;;;;;4996328;28;19930;-80
2024/01/03 11:01:12;;;;;;;1999.90;999.90;;;9.00;99.90;;;;;;4991607;28;20098;-80
2024/01/03 11:04:06;;;;;;;1999.90;999.90;;;8.30;99.90;;;;;;5007178;28;20077;-80
2024/01/03 11:06:36;;;;;;;1999.90;999.90;;;9.10;99.90;;;;;;5010155;28;20050;-80
2024/01/03 11:09:02;;;;;;;1999.90;999.90;;;9.10;99.90;;;;;;4986880;28;20042;-79
2024/01/03 11:11:38;;;;;;;1999.90;999.90;;;9.10;99.90;;;;;;4990732;28;20059;-79
2024/01/03 11:14:19;;;;;;;1999.90;999.90;;;9.10;99.90;;;;;;4987152;28;20293;-80
2024/01/03 11:16:45;;;;;;;1999.90;999.90;;;9.30;99.90;;;;;;4990677;28;20125;-79
2024/01/03 11:19:11;;;;;;;1999.90;999.90;;;9.80;99.90;;;;;;5002991;28;20053;-79
2024/01/03 11:21:42;;;;;;;1999.90;999.90;;;9.90;99.90;;;;;;5006642;28;20041;-79
2024/01/03 11:24:20;;;;;;;1999.90;999.90;;;9.40;99.90;;;;;;5003653;28;20093;-79
2024/01/03 11:26:52;;;;;;;1999.90;999.90;;;9.20;99.90;;;;;;4992328;28;20069;-80
2024/01/03 11:29:44;;;;;;;1999.90;999.90;;;8.60;99.90;;;;;;5007527;28;20407;-80
2024/01/03 11:32:31;;;;;;;1999.90;999.90;;;8.80;99.90;;;;;;4988297;28;20403;-80
2024/01/03 11:34:58;;;;;;;1999.90;999.90;;;9.40;99.90;;;;;;5004047;28;20483;-79
2024/01/03 11:37:26;;;;;;;1999.90;999.90;;;10.30;99.90;;;;;;4987679;28;20462;-79
2024/01/03 11:39:54;;;;;;;1999.90;999.90;;;10.00;99.90;;;;;;5008359;28;20034;-81
2024/01/03 11:42:25;;;;;;;1999.90;999.90;;;10.20;99.90;;;;;;5003165;28;20091;-80
2024/01/03 11:45:07;;;;;;;1999.90;999.90;;;9.20;99.90;;;;;;5002761;28;20048;-80
2024/01/03 11:47:43;;;;;;;1999.90;999.90;;;9.80;99.90;;;;;;5018493;28;20042;-80
2024/01/03 11:50:12;;;;;;;1999.90;999.90;;;9.30;99.90;;;;;;4998982;28;20081;-80
2024/01/03 11:52:47;;;;;;;1999.90;999.90;;;9.90;99.90;;;;;;4987683;28;20057;-81
2024/01/03 11:55:16;;;;;;;1999.90;999.90;;;10.30;99.90;;;;;;4983845;28;20042;-80
2024/01/03 11:57:44;;;;;;;1999.90;999.90;;;10.60;99.90;;;;;;5004540;28;20114;-80
2024/01/03 12:00:11;;;;;;;1999.90;999.90;;;9.90;99.90;;;;;;5006662;28;20042;-81
2024/01/03 12:02:51;;;;;;;1999.90;999.90;;;9.80;99.90;;;;;;5002440;28;20491;-81
2024/01/03 12:05:17;;;;;;;1999.90;999.90;;;9.70;99.90;;;;;;4989401;28;20030;-81
2024/01/03 12:07:48;;;;;;;1999.90;999.90;;;9.70;99.90;;;;;;4981928;28;20202;-80